Time;durP1;ratioP1;P1;durP2;ratioP2;P2;SDS_P1;SDS_P2;PMS_P1;PMS_P2;Temp;Humidity;BMP_temperature;BMP_pressure;BME280_temperature;BME280_humidity;BME280_pressure;Samples;Min_cycle;Max_cycle;Signal;HPM_P1;HPM_P2
2024/03/14 00:01:53;;;;;;;3.33;2.90;;;11.80;99.90;;;;;;5037425;28;20059;-31
2024/03/14 00:04:20;;;;;;;3.78;2.97;;;11.80;99.90;;;;;;5038853;28;20175;-38
2024/03/14 00:06:46;;;;;;;2.92;2.72;;;11.80;99.90;;;;;;5040915;28;20028;-34
2024/03/14 00:09:12;;;;;;;3.83;3.40;;;11.70;99.90;;;;;;5040059;28;20049;-36
2024/03/14 00:11:37;;;;;;;2.70;2.50;;;11.70;99.90;;;;;;5038628;28;20032;-32
2024/03/14 00:14:03;;;;;;;3.20;2.38;;;11.70;99.90;;;;;;5040460;28;20125;-35
2024/03/14 00:16:29;;;;;;;2.72;2.53;;;11.70;99.90;;;;;;5039974;28;20543;-34
2024/03/14 00:18:54;;;;;;;2.78;2.58;;;11.70;99.90;;;;;;5040542;28;20045;-32
2024/03/14 00:21:20;;;;;;;2.42;2.22;;;11.70;99.90;;;;;;5040174;28;20036;-32
2024/03/14 00:23:46;;;;;;;2.83;2.60;;;11.70;99.90;;;;;;5040127;28;20487;-32
2024/03/14 00:26:15;;;;;;;3.00;2.75;;;11.60;99.90;;;;;;5039070;28;20021;-31
2024/03/14 00:28:41;;;;;;;3.17;2.70;;;11.60;99.90;;;;;;5039654;28;20025;-32
2024/03/14 00:31:07;;;;;;;3.00;2.80;;;11.60;99.90;;;;;;5039041;28;20033;-30
2024/03/14 00:33:32;;;;;;;3.03;2.72;;;11.60;99.90;;;;;;5039355;28;20032;-33
2024/03/14 00:35:58;;;;;;;2.30;2.10;;;11.60;99.90;;;;;;5039679;28;20487;-34
2024/03/14 00:38:24;;;;;;;2.97;2.78;;;11.60;99.90;;;;;;5035736;28;20033;-35
2024/03/14 00:40:50;;;;;;;2.97;2.78;;;11.50;99.90;;;;;;5039176;28;20661;-34
2024/03/14 00:43:16;;;;;;;2.95;2.60;;;11.50;99.90;;;;;;5039686;28;20021;-33
2024/03/14 00:45:42;;;;;;;2.85;2.38;;;11.50;99.90;;;;;;5036876;28;20710;-33
2024/03/14 00:48:08;;;;;;;2.55;2.35;;;11.50;99.90;;;;;;5039047;28;20025;-29
2024/03/14 00:50:35;;;;;;;2.60;2.40;;;11.50;99.90;;;;;;5039714;28;20075;-32
2024/03/14 00:53:04;;;;;;;2.60;2.40;;;11.40;99.90;;;;;;5039460;28;20145;-32
2024/03/14 00:55:33;;;;;;;2.40;2.20;;;11.50;99.90;;;;;;5038203;28;20025;-32
2024/03/14 00:58:01;;;;;;;2.40;2.20;;;11.50;99.90;;;;;;5039578;28;20092;-33
2024/03/14 01:00:27;;;;;;;2.33;2.13;;;11.40;99.90;;;;;;5038501;28;20036;-35
2024/03/14 01:02:56;;;;;;;2.70;2.50;;;11.40;99.90;;;;;;5039817;28;20021;-35
2024/03/14 01:05:22;;;;;;;2.22;2.03;;;11.50;99.90;;;;;;5038028;28;20582;-34
2024/03/14 01:07:50;;;;;;;2.78;2.45;;;11.40;99.90;;;;;;5039166;28;20014;-34
2024/03/14 01:10:16;;;;;;;2.70;2.50;;;11.40;99.90;;;;;;5038892;28;20021;-30
2024/03/14 01:12:42;;;;;;;2.55;2.35;;;11.40;99.90;;;;;;5037430;28;20524;-35
2024/03/14 01:15:08;;;;;;;2.45;2.20;;;11.40;99.90;;;;;;5039773;28;20056;-35
2024/03/14 01:17:34;;;;;;;2.22;1.90;;;11.40;99.90;;;;;;5043614;28;20017;-35
2024/03/14 01:20:02;;;;;;;2.55;2.30;;;11.30;99.90;;;;;;5043864;28;20047;-33
2024/03/14 01:22:32;;;;;;;2.40;2.20;;;11.30;99.90;;;;;;5043184;28;20111;-35
2024/03/14 01:24:57;;;;;;;2.33;2.13;;;11.30;99.90;;;;;;5043318;28;20112;-36
2024/03/14 01:27:23;;;;;;;3.20;1.92;;;11.30;99.90;;;;;;5042786;28;20589;-31
2024/03/14 01:29:48;;;;;;;2.60;2.33;;;11.30;99.90;;;;;;5042752;28;20048;-34
2024/03/14 01:32:14;;;;;;;2.25;2.05;;;11.30;99.90;;;;;;5043030;28;20043;-33
2024/03/14 01:34:39;;;;;;;2.30;2.10;;;11.20;99.90;;;;;;5041256;28;20028;-31
2024/03/14 01:37:10;;;;;;;2.58;2.38;;;11.30;99.90;;;;;;5043175;28;20031;-29
2024/03/14 01:39:37;;;;;;;2.40;2.20;;;11.20;99.90;;;;;;5043638;28;20041;-31
2024/03/14 01:42:06;;;;;;;2.30;1.95;;;11.30;99.90;;;;;;5042955;28;20895;-30
2024/03/14 01:44:49;;;;;;;2.55;2.10;;;11.30;99.90;;;;;;5041115;28;20043;-32
2024/03/14 01:47:15;;;;;;;2.30;2.10;;;11.20;99.90;;;;;;5031779;28;20060;-29
2024/03/14 01:49:41;;;;;;;2.50;2.30;;;11.20;99.90;;;;;;5042456;28;20116;-29
2024/03/14 01:52:07;;;;;;;2.58;2.38;;;11.20;99.90;;;;;;5042949;28;20063;-31
2024/03/14 01:54:36;;;;;;;2.35;2.15;;;11.20;99.90;;;;;;5042467;28;20453;-31
2024/03/14 01:57:01;;;;;;;2.33;2.13;;;11.20;99.90;;;;;;5043386;28;20047;-30
2024/03/14 01:59:28;;;;;;;2.40;2.20;;;11.20;99.90;;;;;;5042479;28;20037;-28
2024/03/14 02:01:55;;;;;;;2.78;2.58;;;11.20;99.90;;;;;;5042026;28;20115;-31
2024/03/14 02:04:27;;;;;;;2.80;2.60;;;11.10;99.90;;;;;;5038372;28;20031;-31
2024/03/14 02:07:06;;;;;;;2.72;2.53;;;11.10;99.90;;;;;;5043292;28;20029;-32
2024/03/14 02:09:37;;;;;;;2.95;2.72;;;11.10;99.90;;;;;;5040111;28;20075;-30
2024/03/14 02:12:05;;;;;;;3.15;2.78;;;11.10;99.90;;;;;;5041448;28;20047;-37
2024/03/14 02:14:31;;;;;;;2.67;2.47;;;11.00;99.90;;;;;;5039425;28;20021;-35
2024/03/14 02:17:00;;;;;;;3.00;2.70;;;11.10;99.90;;;;;;5039761;28;20499;-33
2024/03/14 02:19:26;;;;;;;3.08;2.78;;;11.10;99.90;;;;;;5040385;28;20045;-32
2024/03/14 02:21:52;;;;;;;3.28;2.90;;;11.00;99.90;;;;;;5039719;28;20040;-36
2024/03/14 02:24:20;;;;;;;2.92;2.70;;;11.00;99.90;;;;;;5038313;28;20032;-33
2024/03/14 02:26:46;;;;;;;3.20;2.90;;;11.00;99.90;;;;;;5040763;28;20131;-33
2024/03/14 02:29:11;;;;;;;5.03;2.92;;;11.00;99.90;;;;;;5040772;28;20029;-33
2024/03/14 02:31:37;;;;;;;3.30;3.00;;;11.00;99.90;;;;;;5039538;28;20025;-31
2024/03/14 02:34:06;;;;;;;3.22;2.70;;;11.00;99.90;;;;;;5041361;28;20081;-31
2024/03/14 02:36:35;;;;;;;4.07;3.50;;;11.00;99.90;;;;;;5041118;28;20116;-32
2024/03/14 02:39:01;;;;;;;3.55;3.25;;;11.00;99.90;;;;;;5040656;28;20037;-34
2024/03/14 02:41:28;;;;;;;4.18;3.78;;;11.00;99.90;;;;;;5039718;28;20460;-31
2024/03/14 02:43:56;;;;;;;4.18;3.72;;;11.00;99.90;;;;;;5039920;28;20025;-30
2024/03/14 02:46:22;;;;;;;4.50;4.07;;;11.00;99.90;;;;;;5040230;28;20056;-36
2024/03/14 02:48:48;;;;;;;4.32;3.90;;;11.00;99.90;;;;;;5040656;28;20124;-34
2024/03/14 02:51:13;;;;;;;4.22;3.83;;;11.00;99.90;;;;;;5039590;28;20029;-36
2024/03/14 02:53:39;;;;;;;4.18;3.72;;;11.00;99.90;;;;;;5040253;28;20052;-33
2024/03/14 02:56:08;;;;;;;5.93;4.35;;;10.90;99.90;;;;;;5036370;28;20037;-33
2024/03/14 02:58:36;;;;;;;4.82;4.32;;;10.90;99.90;;;;;;5039566;28;20291;-32
2024/03/14 03:01:03;;;;;;;5.05;4.43;;;10.90;99.90;;;;;;5039986;28;20473;-33
2024/03/14 03:03:29;;;;;;;4.45;4.05;;;10.90;99.90;;;;;;5041233;28;20028;-34
2024/03/14 03:05:54;;;;;;;5.22;4.63;;;10.80;99.90;;;;;;5040226;28;20376;-31
2024/03/14 03:08:26;;;;;;;5.10;4.60;;;10.80;99.90;;;;;;5032492;28;218628;-34
2024/03/14 03:10:51;;;;;;;5.03;4.53;;;10.70;99.90;;;;;;5038989;28;20076;-30
2024/03/14 03:13:20;;;;;;;5.57;4.75;;;10.70;99.90;;;;;;5039944;28;21075;-34
2024/03/14 03:15:45;;;;;;;5.25;4.60;;;10.60;99.90;;;;;;5039874;28;20412;-36
2024/03/14 03:18:13;;;;;;;5.00;4.55;;;10.60;99.90;;;;;;5041499;28;20070;-36
2024/03/14 03:20:42;;;;;;;5.20;4.70;;;10.60;99.90;;;;;;5039937;28;20021;-32
2024/03/14 03:23:08;;;;;;;5.55;4.95;;;10.60;99.90;;;;;;5041501;28;20025;-36
2024/03/14 03:25:34;;;;;;;5.13;4.63;;;10.60;99.90;;;;;;5040558;28;20021;-34
2024/03/14 03:28:02;;;;;;;5.50;5.00;;;10.60;99.90;;;;;;5041195;28;20036;-32
2024/03/14 03:30:28;;;;;;;5.35;4.85;;;10.60;99.90;;;;;;5040964;28;20052;-35
2024/03/14 03:33:03;;;;;;;5.15;4.65;;;10.50;99.90;;;;;;5040914;28;20116;-33
2024/03/14 03:35:28;;;;;;;5.57;4.70;;;10.50;99.90;;;;;;5039020;28;20094;-35
2024/03/14 03:37:58;;;;;;;5.57;5.05;;;10.50;99.90;;;;;;5040416;28;20040;-33
2024/03/14 03:40:24;;;;;;;4.60;4.20;;;10.50;99.90;;;;;;5040308;28;20226;-35
2024/03/14 03:42:51;;;;;;;5.35;4.85;;;10.50;99.90;;;;;;5038845;28;20023;-33
2024/03/14 03:45:16;;;;;;;6.05;5.45;;;10.40;99.90;;;;;;5039328;28;20045;-35
2024/03/14 03:47:42;;;;;;;8.48;5.38;;;10.40;99.90;;;;;;5039228;28;20025;-32
2024/03/14 03:50:14;;;;;;;5.50;5.00;;;10.40;99.90;;;;;;5040326;28;20048;-33
2024/03/14 03:52:40;;;;;;;6.05;5.20;;;10.40;99.90;;;;;;5037664;28;20036;-33
2024/03/14 03:55:06;;;;;;;5.93;5.32;;;10.40;99.90;;;;;;5037891;28;20036;-34
2024/03/14 03:57:32;;;;;;;5.15;4.65;;;10.40;99.90;;;;;;5039180;28;20107;-36
2024/03/14 03:59:58;;;;;;;5.78;5.18;;;10.40;99.90;;;;;;5020984;28;20115;-35
2024/03/14 04:02:29;;;;;;;5.32;4.22;;;10.30;99.90;;;;;;5033097;28;20136;-36
2024/03/14 04:04:58;;;;;;;6.60;5.28;;;10.30;99.90;;;;;;5040896;28;20116;-35
2024/03/14 04:07:28;;;;;;;5.60;5.00;;;10.30;99.90;;;;;;5039586;28;20031;-35
2024/03/14 04:09:54;;;;;;;5.53;5.00;;;10.30;99.90;;;;;;5040566;28;20132;-33
2024/03/14 04:12:26;;;;;;;5.43;4.80;;;10.30;99.90;;;;;;5039483;28;20056;-32
2024/03/14 04:14:55;;;;;;;5.95;5.40;;;10.30;99.90;;;;;;5040008;28;20057;-33
2024/03/14 04:17:20;;;;;;;6.13;5.10;;;10.20;99.90;;;;;;5039240;28;20871;-33
2024/03/14 04:19:46;;;;;;;6.55;5.90;;;10.20;99.90;;;;;;5040363;28;20037;-35
2024/03/14 04:22:14;;;;;;;6.30;5.70;;;10.20;99.90;;;;;;5040549;28;20024;-32
2024/03/14 04:24:41;;;;;;;6.10;5.50;;;10.20;99.90;;;;;;5038193;28;20033;-36
2024/03/14 04:27:06;;;;;;;5.47;4.95;;;10.20;99.90;;;;;;5039487;28;20609;-32
2024/03/14 04:29:32;;;;;;;5.95;5.35;;;10.20;99.90;;;;;;5039534;28;20078;-37
2024/03/14 04:31:58;;;;;;;6.00;5.22;;;10.20;99.90;;;;;;5038832;28;20029;-35
2024/03/14 04:34:23;;;;;;;5.80;5.22;;;10.20;99.90;;;;;;5039246;28;20563;-33
2024/03/14 04:36:52;;;;;;;6.03;5.45;;;10.20;99.90;;;;;;5039852;28;20025;-33
2024/03/14 04:39:19;;;;;;;5.72;5.22;;;10.10;99.90;;;;;;5039664;28;20040;-34
2024/03/14 04:41:45;;;;;;;6.18;5.57;;;10.20;99.90;;;;;;5040502;28;20024;-34
2024/03/14 04:44:11;;;;;;;5.60;4.93;;;10.10;99.90;;;;;;5038978;28;20388;-34
2024/03/14 04:46:41;;;;;;;6.38;5.15;;;10.10;99.90;;;;;;5040300;28;20021;-31
2024/03/14 04:49:10;;;;;;;5.75;5.25;;;10.10;99.90;;;;;;5038561;28;20041;-35
2024/03/14 04:51:39;;;;;;;6.00;5.45;;;10.10;99.90;;;;;;5038492;28;20120;-34
2024/03/14 04:54:05;;;;;;;5.85;5.25;;;10.10;99.90;;;;;;5038812;28;20039;-31
2024/03/14 04:56:34;;;;;;;5.68;5.07;;;10.10;99.90;;;;;;5040023;28;20021;-35
2024/03/14 04:59:01;;;;;;;7.97;5.68;;;10.10;99.90;;;;;;5038905;28;20654;-31
2024/03/14 05:01:29;;;;;;;6.45;5.80;;;10.10;99.90;;;;;;5039544;28;20033;-34
2024/03/14 05:03:56;;;;;;;6.63;5.97;;;10.00;99.90;;;;;;5039853;28;20036;-33
2024/03/14 05:06:22;;;;;;;5.60;5.10;;;10.00;99.90;;;;;;5037093;28;20036;-36
2024/03/14 05:08:48;;;;;;;5.70;5.10;;;10.00;99.90;;;;;;5039471;28;20087;-34
2024/03/14 05:11:15;;;;;;;5.63;5.13;;;9.90;99.90;;;;;;5039669;28;20021;-34
2024/03/14 05:13:41;;;;;;;6.10;5.50;;;9.90;99.90;;;;;;5039313;28;20029;-34
2024/03/14 05:16:06;;;;;;;5.55;5.05;;;9.90;99.90;;;;;;5038590;28;20089;-33
2024/03/14 05:18:33;;;;;;;5.75;5.22;;;9.90;99.90;;;;;;5039153;28;20116;-32
2024/03/14 05:21:03;;;;;;;5.93;5.35;;;9.90;99.90;;;;;;5038898;28;20090;-30
2024/03/14 05:23:29;;;;;;;5.50;5.00;;;9.90;99.90;;;;;;5039550;28;20917;-30
2024/03/14 05:25:55;;;;;;;5.45;4.95;;;9.80;99.90;;;;;;5038617;28;20395;-34
2024/03/14 05:28:21;;;;;;;5.55;4.97;;;9.80;99.90;;;;;;5039142;28;20499;-31
2024/03/14 05:30:46;;;;;;;5.53;4.75;;;9.80;99.90;;;;;;5039183;28;20078;-34
2024/03/14 05:33:12;;;;;;;5.47;4.70;;;9.80;99.90;;;;;;5038973;28;20148;-34
2024/03/14 05:35:37;;;;;;;4.90;4.40;;;9.80;99.90;;;;;;5039713;28;20025;-33
2024/03/14 05:38:04;;;;;;;5.57;4.72;;;9.70;99.90;;;;;;5038286;28;20025;-30
2024/03/14 05:40:30;;;;;;;6.38;5.32;;;9.80;99.90;;;;;;5037560;28;20025;-34
2024/03/14 05:42:55;;;;;;;5.43;4.93;;;9.70;99.90;;;;;;5039788;28;20055;-32
2024/03/14 05:45:21;;;;;;;5.35;4.85;;;9.70;99.90;;;;;;5037802;28;20028;-34
2024/03/14 05:47:48;;;;;;;5.93;4.78;;;9.70;99.90;;;;;;5039032;28;20032;-33
2024/03/14 05:50:13;;;;;;;5.20;4.70;;;9.70;99.90;;;;;;5039619;28;20053;-31
2024/03/14 05:52:42;;;;;;;5.18;4.68;;;9.70;99.90;;;;;;5038758;28;20171;-32
2024/03/14 05:55:09;;;;;;;6.45;4.55;;;9.70;99.90;;;;;;5037551;28;20459;-35
2024/03/14 05:57:36;;;;;;;5.18;4.68;;;9.60;99.90;;;;;;5039538;28;20029;-35
2024/03/14 06:00:03;;;;;;;4.78;4.28;;;9.60;99.90;;;;;;5037749;28;20037;-35
2024/03/14 06:02:29;;;;;;;4.82;4.43;;;9.60;99.90;;;;;;5040275;28;20800;-36
2024/03/14 06:04:54;;;;;;;4.70;4.30;;;9.60;99.90;;;;;;5043179;28;20028;-34
2024/03/14 06:07:20;;;;;;;6.72;4.80;;;9.60;99.90;;;;;;5041103;28;20868;-32
2024/03/14 06:09:47;;;;;;;5.35;4.80;;;9.50;99.90;;;;;;5040858;28;20132;-34
2024/03/14 06:12:12;;;;;;;5.10;4.28;;;9.60;99.90;;;;;;5041231;28;20063;-34
2024/03/14 06:14:41;;;;;;;5.03;4.57;;;9.50;99.90;;;;;;5028922;28;20041;-35
2024/03/14 06:17:07;;;;;;;4.78;4.28;;;9.60;99.90;;;;;;5038597;28;20026;-32
2024/03/14 06:19:32;;;;;;;5.00;4.50;;;9.60;99.90;;;;;;5042817;28;20028;-32
2024/03/14 06:22:02;;;;;;;4.45;4.05;;;9.60;99.90;;;;;;5041974;28;20040;-36
2024/03/14 06:24:28;;;;;;;4.35;3.95;;;9.60;99.90;;;;;;5042261;28;20029;-35
2024/03/14 06:26:53;;;;;;;4.90;4.10;;;9.60;99.90;;;;;;5041872;28;20118;-30
2024/03/14 06:29:22;;;;;;;4.38;3.97;;;9.60;99.90;;;;;;5042172;28;20320;-35
2024/03/14 06:31:51;;;;;;;3.58;3.28;;;9.60;99.90;;;;;;5041990;28;20600;-35
2024/03/14 06:34:16;;;;;;;4.93;3.92;;;9.60;99.90;;;;;;5041222;28;20036;-34
2024/03/14 06:36:43;;;;;;;3.78;3.47;;;9.60;99.90;;;;;;5040357;28;20025;-35
2024/03/14 06:39:11;;;;;;;4.32;3.92;;;9.60;99.90;;;;;;5042329;28;20044;-32
2024/03/14 06:41:36;;;;;;;4.82;4.00;;;9.60;99.90;;;;;;5040876;28;20064;-35
2024/03/14 06:44:02;;;;;;;4.38;3.72;;;9.60;99.90;;;;;;5041250;28;20184;-33
2024/03/14 06:46:30;;;;;;;4.13;3.72;;;9.60;99.90;;;;;;5040573;28;20373;-35
2024/03/14 06:48:57;;;;;;;4.40;4.00;;;9.60;99.90;;;;;;5041990;28;20033;-31
2024/03/14 06:51:22;;;;;;;4.53;3.67;;;9.60;99.90;;;;;;5040981;28;20885;-34
2024/03/14 06:53:48;;;;;;;3.65;3.35;;;9.70;99.90;;;;;;5039012;28;20404;-32
2024/03/14 06:56:15;;;;;;;3.72;3.33;;;9.70;99.90;;;;;;5039913;28;20025;-33
2024/03/14 06:58:41;;;;;;;3.53;3.22;;;9.70;99.90;;;;;;5040193;28;20041;-36
2024/03/14 07:01:08;;;;;;;3.58;3.28;;;9.70;99.90;;;;;;5040577;28;20032;-35
2024/03/14 07:03:34;;;;;;;2.90;2.70;;;9.70;99.90;;;;;;5040316;28;20032;-36
2024/03/14 07:06:00;;;;;;;4.00;3.60;;;9.70;99.90;;;;;;5040155;28;20032;-33
2024/03/14 07:08:28;;;;;;;3.75;3.20;;;9.70;99.90;;;;;;5040343;28;20049;-36
2024/03/14 07:10:54;;;;;;;3.17;2.88;;;9.80;99.90;;;;;;5041176;28;20032;-35
2024/03/14 07:13:20;;;;;;;3.03;2.72;;;9.80;99.90;;;;;;5038173;28;20101;-35
2024/03/14 07:15:47;;;;;;;2.80;2.60;;;9.80;99.90;;;;;;5040565;28;20040;-32
2024/03/14 07:18:16;;;;;;;3.40;3.10;;;9.80;99.90;;;;;;5041181;28;20751;-36
2024/03/14 07:20:44;;;;;;;3.25;2.63;;;9.90;99.90;;;;;;5041167;28;20043;-32
2024/03/14 07:23:13;;;;;;;2.67;2.47;;;9.90;99.90;;;;;;5040217;28;20104;-33
2024/03/14 07:25:40;;;;;;;3.95;2.80;;;9.90;99.90;;;;;;5039856;28;20029;-33
2024/03/14 07:28:09;;;;;;;4.32;2.70;;;10.00;99.90;;;;;;5039687;28;20033;-31
2024/03/14 07:30:35;;;;;;;3.13;2.83;;;10.00;99.90;;;;;;5041265;28;20052;-32
2024/03/14 07:33:00;;;;;;;2.72;2.50;;;10.00;99.90;;;;;;5038852;28;20119;-36
2024/03/14 07:35:26;;;;;;;3.33;2.90;;;10.10;99.90;;;;;;5039549;28;20023;-34
2024/03/14 07:37:52;;;;;;;3.15;2.85;;;10.10;99.90;;;;;;5040348;28;20051;-36
2024/03/14 07:40:18;;;;;;;3.10;2.80;;;10.20;99.90;;;;;;5039177;28;20790;-35
2024/03/14 07:42:44;;;;;;;2.83;2.55;;;10.20;99.90;;;;;;5041127;28;20033;-32
2024/03/14 07:45:16;;;;;;;2.90;2.60;;;10.20;99.90;;;;;;5038905;28;20123;-37
2024/03/14 07:47:43;;;;;;;2.80;2.60;;;10.30;99.90;;;;;;5040955;28;20057;-32
2024/03/14 07:50:08;;;;;;;3.03;2.72;;;10.30;99.90;;;;;;5039838;28;20070;-36
2024/03/14 07:52:34;;;;;;;2.80;2.60;;;10.40;99.90;;;;;;5039853;28;20492;-31
2024/03/14 07:54:59;;;;;;;2.78;2.55;;;10.50;99.90;;;;;;5039349;28;20101;-34
2024/03/14 07:57:26;;;;;;;2.92;2.65;;;10.50;99.90;;;;;;5040459;28;20033;-33
2024/03/14 07:59:51;;;;;;;3.10;2.80;;;10.50;99.90;;;;;;5040777;28;20037;-35
2024/03/14 08:02:17;;;;;;;3.08;2.80;;;10.60;99.90;;;;;;5039907;28;20056;-36
2024/03/14 08:04:49;;;;;;;3.00;2.70;;;10.60;99.90;;;;;;5040188;28;20028;-36
2024/03/14 08:07:16;;;;;;;2.95;2.47;;;10.60;99.90;;;;;;5040320;28;20514;-34
2024/03/14 08:09:43;;;;;;;2.80;2.60;;;10.70;99.90;;;;;;5039331;28;20055;-39
2024/03/14 08:12:09;;;;;;;2.83;2.63;;;10.70;99.90;;;;;;5039816;28;20825;-36
2024/03/14 08:14:35;;;;;;;3.42;2.70;;;10.80;99.90;;;;;;5039046;28;20031;-36
2024/03/14 08:17:01;;;;;;;2.83;2.63;;;10.80;99.90;;;;;;5040199;28;20029;-33
2024/03/14 08:19:33;;;;;;;3.13;2.83;;;10.90;99.90;;;;;;5039570;28;20041;-32
2024/03/14 08:21:59;;;;;;;3.33;3.03;;;11.00;99.90;;;;;;5036614;28;20052;-33
2024/03/14 08:24:26;;;;;;;2.75;2.50;;;11.00;99.90;;;;;;5040046;28;20594;-35
2024/03/14 08:26:55;;;;;;;2.50;2.30;;;11.10;99.90;;;;;;5040467;28;20122;-34
2024/03/14 08:29:25;;;;;;;3.35;3.05;;;11.10;99.90;;;;;;5039493;28;20218;-37
2024/03/14 08:31:51;;;;;;;2.90;2.60;;;11.20;99.90;;;;;;5040005;28;20021;-36
2024/03/14 08:34:17;;;;;;;2.58;2.38;;;11.20;99.90;;;;;;5040261;28;20063;-35
2024/03/14 08:36:42;;;;;;;2.83;2.55;;;11.30;99.90;;;;;;5038835;28;20334;-34
2024/03/14 08:39:11;;;;;;;3.15;2.50;;;11.30;99.90;;;;;;5038777;28;20110;-34
2024/03/14 08:41:36;;;;;;;2.83;2.58;;;11.40;99.90;;;;;;5038517;28;20023;-33
2024/03/14 08:44:05;;;;;;;2.80;2.60;;;11.40;99.90;;;;;;5038157;28;20046;-32
2024/03/14 08:46:31;;;;;;;2.88;2.65;;;11.50;99.90;;;;;;5038669;28;20017;-36
2024/03/14 08:48:56;;;;;;;2.80;2.60;;;11.60;99.90;;;;;;5038635;28;20061;-35
2024/03/14 08:51:23;;;;;;;2.65;2.45;;;11.60;99.90;;;;;;5037480;28;20112;-35
2024/03/14 08:54:08;;;;;;;2.90;2.70;;;11.70;99.90;;;;;;5039115;28;20110;-34
2024/03/14 08:56:37;;;;;;;2.60;2.40;;;11.80;99.90;;;;;;5039617;28;20628;-33
2024/03/14 08:59:03;;;;;;;2.88;2.67;;;11.90;99.90;;;;;;5039769;28;20036;-35
2024/03/14 09:01:29;;;;;;;2.45;2.25;;;11.90;99.90;;;;;;5039899;28;20033;-37
2024/03/14 09:03:55;;;;;;;2.72;2.53;;;12.10;99.90;;;;;;5039096;28;20037;-36
2024/03/14 09:06:21;;;;;;;2.53;2.33;;;12.10;99.90;;;;;;5039022;28;20025;-36
2024/03/14 09:08:46;;;;;;;2.53;2.33;;;12.30;99.90;;;;;;5038006;28;20056;-34
2024/03/14 09:11:13;;;;;;;2.85;2.22;;;12.40;99.90;;;;;;5038664;28;20021;-33
2024/03/14 09:13:40;;;;;;;2.25;2.05;;;12.50;99.90;;;;;;5039951;28;20468;-34
2024/03/14 09:16:06;;;;;;;2.75;2.55;;;12.60;99.90;;;;;;5039503;28;20025;-31
2024/03/14 09:18:34;;;;;;;2.50;2.30;;;12.70;99.90;;;;;;5038291;28;20080;-33
2024/03/14 09:21:00;;;;;;;2.42;2.22;;;12.70;99.90;;;;;;5039129;28;20032;-33
2024/03/14 09:23:27;;;;;;;2.50;2.30;;;12.80;99.90;;;;;;5038626;28;20037;-37
2024/03/14 09:25:57;;;;;;;2.88;2.33;;;12.90;99.90;;;;;;5019052;28;20029;-34
2024/03/14 09:28:25;;;;;;;2.40;1.90;;;13.00;99.90;;;;;;5033483;28;20078;-36
2024/03/14 09:30:57;;;;;;;2.33;1.90;;;13.10;99.90;;;;;;5039883;28;20029;-33
2024/03/14 09:33:26;;;;;;;2.20;2.00;;;13.10;99.90;;;;;;5038510;28;20099;-35
2024/03/14 09:35:52;;;;;;;2.17;2.00;;;13.20;99.90;;;;;;5040971;28;20029;-33
2024/03/14 09:38:18;;;;;;;2.40;2.20;;;13.30;99.90;;;;;;5042546;28;20463;-32
2024/03/14 09:40:44;;;;;;;1.85;1.75;;;13.40;99.90;;;;;;5042804;28;20110;-36
2024/03/14 09:43:19;;;;;;;2.22;2.03;;;13.40;99.90;;;;;;5043299;28;20039;-32
2024/03/14 09:45:54;;;;;;;2.30;2.10;;;13.40;99.90;;;;;;5043454;28;20024;-35
2024/03/14 09:48:21;;;;;;;2.03;1.92;;;13.40;99.90;;;;;;5041593;28;20478;-35
2024/03/14 09:50:51;;;;;;;2.22;1.92;;;13.50;99.90;;;;;;5043344;28;20029;-36
2024/03/14 09:53:20;;;;;;;2.00;1.90;;;13.50;99.90;;;;;;5042168;28;20029;-33
2024/03/14 09:55:46;;;;;;;2.13;1.95;;;13.50;99.90;;;;;;5043012;28;20109;-30
2024/03/14 09:58:14;;;;;;;1.95;1.85;;;13.50;99.90;;;;;;5042407;28;20021;-33
2024/03/14 10:00:40;;;;;;;2.17;1.77;;;13.50;99.90;;;;;;5042022;28;20040;-36
2024/03/14 10:03:07;;;;;;;2.08;1.85;;;13.50;99.90;;;;;;5042431;28;20032;-32
2024/03/14 10:05:34;;;;;;;1.77;1.67;;;13.50;99.90;;;;;;5042753;28;20020;-36
2024/03/14 10:08:02;;;;;;;1.83;1.73;;;13.50;99.90;;;;;;5042309;28;20052;-36
2024/03/14 10:10:33;;;;;;;2.67;1.67;;;13.50;99.90;;;;;;5040719;28;20021;-33
2024/03/14 10:12:59;;;;;;;1.75;1.65;;;13.50;99.90;;;;;;5043064;28;20029;-36
2024/03/14 10:15:27;;;;;;;1.73;1.63;;;13.50;99.90;;;;;;5041156;28;20025;-32
2024/03/14 10:17:57;;;;;;;1.77;1.65;;;13.50;99.90;;;;;;5043225;28;20029;-34
2024/03/14 10:20:23;;;;;;;1.70;1.60;;;13.50;99.90;;;;;;5042037;28;20132;-36
2024/03/14 10:22:49;;;;;;;2.38;1.90;;;13.60;99.90;;;;;;5041621;28;20025;-33
2024/03/14 10:25:17;;;;;;;1.83;1.60;;;13.60;99.90;;;;;;5041627;28;20032;-36
2024/03/14 10:27:48;;;;;;;2.00;1.80;;;13.60;99.90;;;;;;5042401;28;20183;-36
2024/03/14 10:30:14;;;;;;;3.47;2.00;;;13.60;99.90;;;;;;5041121;28;20080;-32
2024/03/14 10:32:40;;;;;;;3.33;1.80;;;13.60;99.90;;;;;;5042712;28;20666;-36
2024/03/14 10:35:14;;;;;;;1.80;1.70;;;13.70;99.90;;;;;;5041483;28;20029;-35
2024/03/14 10:37:41;;;;;;;1.85;1.75;;;13.70;99.90;;;;;;5042043;28;20017;-32
2024/03/14 10:40:28;;;;;;;1.73;1.63;;;13.80;99.90;;;;;;5041908;28;20025;-36
2024/03/14 10:42:54;;;;;;;2.92;2.10;;;13.90;99.90;;;;;;5041527;28;20094;-35
2024/03/14 10:45:24;;;;;;;2.38;1.77;;;13.90;99.90;;;;;;5041056;28;20510;-36
2024/03/14 10:47:50;;;;;;;2.75;1.70;;;14.00;99.90;;;;;;5042234;28;20118;-34
2024/03/14 10:50:19;;;;;;;2.90;1.95;;;14.10;99.90;;;;;;5040659;28;20448;-36
2024/03/14 10:52:51;;;;;;;1.90;1.80;;;14.10;99.90;;;;;;5041780;28;20566;-37
2024/03/14 10:55:23;;;;;;;1.80;1.70;;;14.10;99.90;;;;;;5041269;28;20103;-37
2024/03/14 10:57:50;;;;;;;1.52;1.42;;;14.20;99.90;;;;;;5041463;28;20029;-35
2024/03/14 11:00:20;;;;;;;2.22;2.03;;;14.20;99.90;;;;;;5041269;28;20123;-35
2024/03/14 11:02:49;;;;;;;2.15;1.95;;;14.20;99.90;;;;;;5042496;28;20048;-33
2024/03/14 11:05:23;;;;;;;1.73;1.63;;;14.20;99.90;;;;;;5040517;28;20754;-34
2024/03/14 11:08:00;;;;;;;1.73;1.63;;;14.30;99.90;;;;;;5041480;28;20029;-35
2024/03/14 11:10:29;;;;;;;1.58;1.48;;;14.30;99.90;;;;;;5041071;28;20060;-34
2024/03/14 11:13:11;;;;;;;1.60;1.50;;;14.40;99.90;;;;;;5042002;28;20052;-35
2024/03/14 11:15:38;;;;;;;1.52;1.42;;;14.40;99.90;;;;;;5041672;28;20025;-37
2024/03/14 11:18:13;;;;;;;2.03;1.83;;;14.50;99.90;;;;;;5040628;28;20036;-33
2024/03/14 11:20:44;;;;;;;1.75;1.65;;;14.50;99.90;;;;;;5042061;28;20040;-32
2024/03/14 11:23:15;;;;;;;1.50;1.40;;;14.50;99.90;;;;;;5041545;28;20025;-30
2024/03/14 11:25:47;;;;;;;1.92;1.50;;;14.60;99.90;;;;;;5040854;28;20521;-34
2024/03/14 11:28:14;;;;;;;1.60;1.50;;;14.60;99.90;;;;;;5038084;28;20017;-34
2024/03/14 11:30:49;;;;;;;1.70;1.48;;;14.70;99.90;;;;;;5041562;28;20108;-36
2024/03/14 11:33:15;;;;;;;2.95;1.45;;;14.80;99.90;;;;;;5040020;28;20103;-30
2024/03/14 11:35:43;;;;;;;1.70;1.60;;;14.90;99.90;;;;;;5042428;28;20033;-33
2024/03/14 11:38:15;;;;;;;1.63;1.30;;;14.90;99.90;;;;;;5040835;28;20049;-35
2024/03/14 11:41:13;;;;;;;1.50;1.40;;;15.00;99.90;;;;;;5040502;28;20131;-34
2024/03/14 11:43:41;;;;;;;2.97;1.40;;;15.10;99.90;;;;;;5039733;28;20488;-33
2024/03/14 11:46:10;;;;;;;1.58;1.30;;;15.20;99.90;;;;;;5040828;28;20108;-34
2024/03/14 11:48:42;;;;;;;1.20;1.10;;;15.30;99.90;;;;;;5040390;28;20597;-36
2024/03/14 11:51:11;;;;;;;1.75;1.33;;;15.40;99.90;;;;;;5040769;28;20037;-36
2024/03/14 11:53:38;;;;;;;1.48;1.35;;;15.40;99.90;;;;;;5039643;28;20400;-30
2024/03/14 11:56:05;;;;;;;1.42;1.33;;;15.50;99.90;;;;;;5040976;28;20102;-32
2024/03/14 11:58:30;;;;;;;1.80;1.63;;;15.60;99.90;;;;;;5040005;28;20036;-33
2024/03/14 12:00:56;;;;;;;1.60;1.50;;;15.60;99.90;;;;;;5040780;28;20037;-36
2024/03/14 12:03:22;;;;;;;1.35;1.25;;;15.70;99.90;;;;;;5040023;28;20029;-34
2024/03/14 12:06:05;;;;;;;1.30;1.20;;;15.70;99.90;;;;;;5041295;28;20119;-32
2024/03/14 12:08:31;;;;;;;;;;;15.80;99.90;;;;;;5040064;28;20458;-34
2024/03/14 12:10:57;;;;;;;1.27;1.17;;;15.80;99.90;;;;;;5040441;28;20364;-34
2024/03/14 12:13:26;;;;;;;1.38;1.00;;;15.90;99.90;;;;;;5039987;28;20098;-33
2024/03/14 12:16:01;;;;;;;1.15;1.05;;;15.90;99.90;;;;;;5040689;28;20057;-32
2024/03/14 12:18:27;;;;;;;1.17;1.08;;;15.90;99.90;;;;;;5039507;28;20047;-34
2024/03/14 12:20:53;;;;;;;1.10;1.00;;;15.80;99.90;;;;;;5040429;28;20823;-34
2024/03/14 12:23:22;;;;;;;2.22;1.20;;;15.80;99.90;;;;;;5039297;28;20027;-35
2024/03/14 12:25:50;;;;;;;1.30;1.13;;;15.90;99.90;;;;;;5040515;28;20126;-34
2024/03/14 12:28:16;;;;;;;1.40;1.20;;;15.90;99.90;;;;;;5040055;28;20012;-34
2024/03/14 12:30:45;;;;;;;1.35;1.15;;;15.90;99.90;;;;;;5039948;28;20021;-36
2024/03/14 12:33:11;;;;;;;1.35;1.25;;;16.00;99.90;;;;;;5039996;28;20071;-34
2024/03/14 12:35:40;;;;;;;1.83;1.30;;;16.20;99.90;;;;;;5039093;28;20440;-35
2024/03/14 12:38:07;;;;;;;1.30;1.20;;;16.20;99.90;;;;;;5039245;28;20071;-34
2024/03/14 12:40:32;;;;;;;2.50;1.25;;;16.30;99.90;;;;;;5039355;28;20400;-36
2024/03/14 12:43:00;;;;;;;1.50;1.40;;;16.40;99.90;;;;;;5039698;28;20098;-34
2024/03/14 12:45:26;;;;;;;1.45;1.35;;;16.50;99.90;;;;;;5038976;28;20099;-36
2024/03/14 12:48:00;;;;;;;2.10;1.50;;;16.60;99.90;;;;;;5040305;28;20025;-35
2024/03/14 12:50:27;;;;;;;1.40;1.30;;;16.70;99.90;;;;;;5038527;28;20864;-35